sensor_id;sensor_type;location;lat;lon;timestamp;pressure;altitude;pressure_sealevel;temperature;humidity
43681;BME280;29281;50.356;30.894;2023-04-07T00:00:50;100097.98;;;7.95;100.00
43681;BME280;29281;50.356;30.894;2023-04-07T00:01:53;100095.33;;;7.95;100.00
43681;BME280;29281;50.356;30.894;2023-04-07T00:02:57;100099.03;;;7.92;100.00
43681;BME280;29281;50.356;30.894;2023-04-07T00:04:01;100100.32;;;7.85;100.00
43681;BME280;29281;50.356;30.894;2023-04-07T00:05:05;100102.28;;;7.82;100.00
43681;BME280;29281;50.356;30.894;2023-04-07T00:06:09;100102.53;;;7.93;100.00
43681;BME280;29281;50.356;30.894;2023-04-07T00:07:13;100092.17;;;8.04;100.00
43681;BME280;29281;50.356;30.894;2023-04-07T00:08:17;100101.72;;;8.06;100.00
43681;BME280;29281;50.356;30.894;2023-04-07T00:09:21;100102.36;;;8.10;100.00
43681;BME280;29281;50.356;30.894;2023-04-07T00:10:26;100100.98;;;8.19;100.00
43681;BME280;29281;50.356;30.894;2023-04-07T00:11:29;100098.34;;;8.19;100.00
43681;BME280;29281;50.356;30.894;2023-04-07T00:12:34;100110.12;;;8.13;100.00
43681;BME280;29281;50.356;30.894;2023-04-07T00:13:39;100100.45;;;7.98;100.00
43681;BME280;29281;50.356;30.894;2023-04-07T00:14:43;100107.99;;;7.90;100.00
43681;BME280;29281;50.356;30.894;2023-04-07T00:15:48;100113.54;;;7.85;100.00
43681;BME280;29281;50.356;30.894;2023-04-07T00:16:51;100102.28;;;7.82;100.00
43681;BME280;29281;50.356;30.894;2023-04-07T00:17:55;100101.43;;;7.81;100.00
43681;BME280;29281;50.356;30.894;2023-04-07T00:18:58;100107.34;;;7.70;100.00
43681;BME280;29281;50.356;30.894;2023-04-07T00:20:03;100105.02;;;7.80;100.00
43681;BME280;29281;50.356;30.894;2023-04-07T00:21:06;100103.81;;;7.86;100.00
43681;BME280;29281;50.356;30.894;2023-04-07T00:22:10;100110.05;;;7.85;100.00
43681;BME280;29281;50.356;30.894;2023-04-07T00:23:13;100107.05;;;7.91;100.00
43681;BME280;29281;50.356;30.894;2023-04-07T00:24:16;100108.67;;;7.93;100.00
43681;BME280;29281;50.356;30.894;2023-04-07T00:25:23;100111.58;;;7.89;100.00
43681;BME280;29281;50.356;30.894;2023-04-07T00:26:29;100106.23;;;7.74;100.00
43681;BME280;29281;50.356;30.894;2023-04-07T00:27:36;100115.11;;;7.73;100.00
43681;BME280;29281;50.356;30.894;2023-04-07T00:28:39;100115.28;;;7.70;100.00
43681;BME280;29281;50.356;30.894;2023-04-07T00:29:46;100122.44;;;7.68;100.00
43681;BME280;29281;50.356;30.894;2023-04-07T00:30:49;100119.96;;;7.65;100.00
43681;BME280;29281;50.356;30.894;2023-04-07T00:31:53;100117.52;;;7.62;100.00
43681;BME280;29281;50.356;30.894;2023-04-07T00:32:56;100117.77;;;7.58;100.00
43681;BME280;29281;50.356;30.894;2023-04-07T00:34:00;100117.69;;;7.59;100.00
43681;BME280;29281;50.356;30.894;2023-04-07T00:35:05;100127.16;;;7.63;100.00
43681;BME280;29281;50.356;30.894;2023-04-07T00:36:11;100114.34;;;7.71;100.00
43681;BME280;29281;50.356;30.894;2023-04-07T00:37:15;100111.44;;;7.76;100.00
43681;BME280;29281;50.356;30.894;2023-04-07T00:38:19;100126.10;;;7.66;100.00
43681;BME280;29281;50.356;30.894;2023-04-07T00:39:24;100119.65;;;7.56;100.00
43681;BME280;29281;50.356;30.894;2023-04-07T00:40:28;100125.62;;;7.59;100.00
43681;BME280;29281;50.356;30.894;2023-04-07T00:41:33;100122.29;;;7.56;100.00
43681;BME280;29281;50.356;30.894;2023-04-07T00:42:36;100121.19;;;7.60;100.00
43681;BME280;29281;50.356;30.894;2023-04-07T00:43:41;100119.63;;;7.71;100.00
43681;BME280;29281;50.356;30.894;2023-04-07T00:44:47;100123.13;;;7.72;100.00
43681;BME280;29281;50.356;30.894;2023-04-07T00:45:51;100130.53;;;7.65;100.00
43681;BME280;29281;50.356;30.894;2023-04-07T00:46:54;100126.64;;;7.57;100.00
43681;BME280;29281;50.356;30.894;2023-04-07T00:47:59;100126.39;;;7.61;100.00
43681;BME280;29281;50.356;30.894;2023-04-07T00:49:01;100128.52;;;7.55;100.00
43681;BME280;29281;50.356;30.894;2023-04-07T00:50:06;100136.03;;;7.47;100.00
43681;BME280;29281;50.356;30.894;2023-04-07T00:51:09;100137.62;;;7.33;100.00
43681;BME280;29281;50.356;30.894;2023-04-07T00:52:12;100124.17;;;7.38;100.00
43681;BME280;29281;50.356;30.894;2023-04-07T00:53:17;100130.91;;;7.44;100.00
43681;BME280;29281;50.356;30.894;2023-04-07T00:54:28;100133.80;;;7.39;100.00
43681;BME280;29281;50.356;30.894;2023-04-07T00:55:34;100128.69;;;7.36;100.00
43681;BME280;29281;50.356;30.894;2023-04-07T00:56:38;100129.81;;;7.32;100.00
43681;BME280;29281;50.356;30.894;2023-04-07T00:57:44;100136.80;;;7.33;100.00
43681;BME280;29281;50.356;30.894;2023-04-07T00:58:49;100141.23;;;7.48;100.00
43681;BME280;29281;50.356;30.894;2023-04-07T00:59:53;100137.89;;;7.60;100.00
43681;BME280;29281;50.356;30.894;2023-04-07T01:01:03;100145.37;;;7.68;100.00
43681;BME280;29281;50.356;30.894;2023-04-07T01:03:18;100138.98;;;7.72;100.00
43681;BME280;29281;50.356;30.894;2023-04-07T01:04:26;100146.14;;;7.70;100.00
43681;BME280;29281;50.356;30.894;2023-04-07T01:05:45;100149.04;;;7.65;100.00
43681;BME280;29281;50.356;30.894;2023-04-07T01:06:49;100150.34;;;7.43;100.00
43681;BME280;29281;50.356;30.894;2023-04-07T01:09:12;100139.69;;;7.60;100.00
43681;BME280;29281;50.356;30.894;2023-04-07T01:10:16;100138.67;;;7.47;100.00
43681;BME280;29281;50.356;30.894;2023-04-07T01:13:56;100141.64;;;7.56;100.00
43681;BME280;29281;50.356;30.894;2023-04-07T01:15:11;100147.01;;;7.55;100.00
43681;BME280;29281;50.356;30.894;2023-04-07T01:16:35;100146.08;;;7.56;100.00
43681;BME280;29281;50.356;30.894;2023-04-07T01:17:41;100143.52;;;7.38;100.00
43681;BME280;29281;50.356;30.894;2023-04-07T01:18:44;100155.78;;;7.24;100.00
43681;BME280;29281;50.356;30.894;2023-04-07T01:19:52;100152.37;;;7.22;100.00
43681;BME280;29281;50.356;30.894;2023-04-07T01:21:01;100152.97;;;7.11;100.00
43681;BME280;29281;50.356;30.894;2023-04-07T01:22:06;100157.63;;;7.06;100.00
43681;BME280;29281;50.356;30.894;2023-04-07T01:23:12;100155.61;;;7.11;100.00
43681;BME280;29281;50.356;30.894;2023-04-07T01:26:46;100152.05;;;7.28;100.00
43681;BME280;29281;50.356;30.894;2023-04-07T01:30:08;100163.96;;;7.35;100.00
43681;BME280;29281;50.356;30.894;2023-04-07T01:31:11;100160.39;;;7.36;100.00
43681;BME280;29281;50.356;30.894;2023-04-07T01:32:16;100154.86;;;7.40;100.00
43681;BME280;29281;50.356;30.894;2023-04-07T01:33:22;100162.70;;;7.42;100.00
43681;BME280;29281;50.356;30.894;2023-04-07T01:34:29;100159.05;;;7.45;100.00
43681;BME280;29281;50.356;30.894;2023-04-07T01:35:33;100162.02;;;7.38;100.00
43681;BME280;29281;50.356;30.894;2023-04-07T01:36:41;100161.84;;;7.41;100.00
43681;BME280;29281;50.356;30.894;2023-04-07T01:37:47;100168.39;;;7.34;100.00
43681;BME280;29281;50.356;30.894;2023-04-07T01:38:51;100162.87;;;7.39;100.00
43681;BME280;29281;50.356;30.894;2023-04-07T01:39:57;100164.48;;;7.26;100.00
43681;BME280;29281;50.356;30.894;2023-04-07T01:41:00;100170.95;;;7.36;100.00
43681;BME280;29281;50.356;30.894;2023-04-07T01:42:04;100173.88;;;7.31;100.00
43681;BME280;29281;50.356;30.894;2023-04-07T01:43:07;100166.96;;;7.29;100.00
43681;BME280;29281;50.356;30.894;2023-04-07T01:44:12;100170.80;;;7.39;100.00
43681;BME280;29281;50.356;30.894;2023-04-07T01:45:15;100166.11;;;7.44;100.00
43681;BME280;29281;50.356;30.894;2023-04-07T01:46:19;100161.77;;;7.43;100.00
43681;BME280;29281;50.356;30.894;2023-04-07T01:47:22;100160.75;;;7.46;100.00
43681;BME280;29281;50.356;30.894;2023-04-07T01:48:26;100170.09;;;7.35;100.00
43681;BME280;29281;50.356;30.894;2023-04-07T01:49:30;100175.72;;;7.14;100.00
43681;BME280;29281;50.356;30.894;2023-04-07T01:50:35;100173.66;;;7.19;100.00
43681;BME280;29281;50.356;30.894;2023-04-07T01:51:42;100175.37;;;7.20;100.00
43681;BME280;29281;50.356;30.894;2023-04-07T01:52:47;100173.88;;;7.31;100.00
43681;BME280;29281;50.356;30.894;2023-04-07T01:53:51;100177.84;;;7.23;100.00
43681;BME280;29281;50.356;30.894;2023-04-07T01:54:55;100171.63;;;7.24;100.00
43681;BME280;29281;50.356;30.894;2023-04-07T01:56:00;100178.46;;;7.28;100.00
43681;BME280;29281;50.356;30.894;2023-04-07T01:57:04;100171.15;;;7.33;100.00
43681;BME280;29281;50.356;30.894;2023-04-07T01:58:07;100176.60;;;7.46;100.00
43681;BME280;29281;50.356;30.894;2023-04-07T01:59:12;100171.41;;;7.44;100.00
43681;BME280;29281;50.356;30.894;2023-04-07T02:00:16;100178.72;;;7.55;100.00
43681;BME280;29281;50.356;30.894;2023-04-07T02:01:22;100178.72;;;7.55;100.00
43681;BME280;29281;50.356;30.894;2023-04-07T02:02:25;100177.38;;;7.48;100.00
43681;BME280;29281;50.356;30.894;2023-04-07T02:03:30;100174.73;;;7.48;100.00
43681;BME280;29281;50.356;30.894;2023-04-07T02:04:48;100179.39;;;7.27;100.00
43681;BME280;29281;50.356;30.894;2023-04-07T02:05:53;100175.45;;;7.18;100.00
43681;BME280;29281;50.356;30.894;2023-04-07T02:07:02;100184.06;;;7.22;100.00
43681;BME280;29281;50.356;30.894;2023-04-07T02:08:05;100179.91;;;7.18;100.00
43681;BME280;29281;50.356;30.894;2023-04-07T02:09:10;100175.13;;;7.24;100.00
43681;BME280;29281;50.356;30.894;2023-04-07T02:10:14;100185.17;;;7.33;100.00
43681;BME280;29281;50.356;30.894;2023-04-07T02:11:17;100177.86;;;7.38;100.00
43681;BME280;29281;50.356;30.894;2023-04-07T02:12:24;100185.09;;;7.35;100.00
43681;BME280;29281;50.356;30.894;2023-04-07T02:13:30;100182.13;;;7.41;100.00
43681;BME280;29281;50.356;30.894;2023-04-07T02:14:38;100184.45;;;7.47;100.00
43681;BME280;29281;50.356;30.894;2023-04-07T02:15:43;100186.40;;;7.44;100.00
43681;BME280;29281;50.356;30.894;2023-04-07T02:16:51;100179.72;;;7.21;100.00
43681;BME280;29281;50.356;30.894;2023-04-07T02:17:56;100182.20;;;7.24;100.00
43681;BME280;29281;50.356;30.894;2023-04-07T02:19:00;100183.91;;;7.25;100.00
43681;BME280;29281;50.356;30.894;2023-04-07T02:20:06;100186.78;;;7.20;100.00
43681;BME280;29281;50.356;30.894;2023-04-07T02:21:12;100184.06;;;7.22;100.00
43681;BME280;29281;50.356;30.894;2023-04-07T02:22:18;100190.95;;;7.09;100.00
43681;BME280;29281;50.356;30.894;2023-04-07T02:23:21;100189.32;;;7.06;100.00
43681;BME280;29281;50.356;30.894;2023-04-07T02:24:25;100191.88;;;7.08;100.00
43681;BME280;29281;50.356;30.894;2023-04-07T02:25:29;100187.83;;;7.18;100.00
43681;BME280;29281;50.356;30.894;2023-04-07T02:26:33;100189.32;;;7.06;100.00
43681;BME280;29281;50.356;30.894;2023-04-07T02:27:37;100193.27;;;7.15;100.00
43681;BME280;29281;50.356;30.894;2023-04-07T02:28:40;100195.84;;;7.16;100.00
43681;BME280;29281;50.356;30.894;2023-04-07T02:29:42;100187.06;;;7.16;100.00
43681;BME280;29281;50.356;30.894;2023-04-07T02:30:47;100194.79;;;7.19;100.00
43681;BME280;29281;50.356;30.894;2023-04-07T02:31:49;100181.42;;;7.22;100.00
43681;BME280;29281;50.356;30.894;2023-04-07T02:32:52;100182.30;;;6.89;100.00
43681;BME280;29281;50.356;30.894;2023-04-07T02:33:56;100191.48;;;6.82;100.00
43681;BME280;29281;50.356;30.894;2023-04-07T02:34:59;100186.13;;;6.84;100.00
43681;BME280;29281;50.356;30.894;2023-04-07T02:36:02;100184.08;;;6.89;100.00
43681;BME280;29281;50.356;30.894;2023-04-07T02:37:13;100192.55;;;6.95;100.00
43681;BME280;29281;50.356;30.894;2023-04-07T02:38:17;100191.53;;;6.98;100.00
43681;BME280;29281;50.356;30.894;2023-04-07T02:39:21;100195.45;;;7.06;100.00
43681;BME280;29281;50.356;30.894;2023-04-07T02:40:25;100200.47;;;6.95;100.00
43681;BME280;29281;50.356;30.894;2023-04-07T02:41:28;100200.89;;;7.03;100.00
43681;BME280;29281;50.356;30.894;2023-04-07T02:42:31;100205.94;;;7.08;100.00
43681;BME280;29281;50.356;30.894;2023-04-07T02:43:35;100203.72;;;7.00;100.00
43681;BME280;29281;50.356;30.894;2023-04-07T02:44:37;100201.55;;;6.91;100.00
43681;BME280;29281;50.356;30.894;2023-04-07T02:45:44;100201.42;;;6.77;100.00
43681;BME280;29281;50.356;30.894;2023-04-07T02:46:47;100201.62;;;6.90;100.00
43681;BME280;29281;50.356;30.894;2023-04-07T02:47:51;100205.90;;;6.92;100.00
43681;BME280;29281;50.356;30.894;2023-04-07T02:48:54;100202.79;;;7.01;100.00
43681;BME280;29281;50.356;30.894;2023-04-07T02:49:57;100206.52;;;6.97;100.00
43681;BME280;29281;50.356;30.894;2023-04-07T02:51:00;100206.98;;;6.88;100.00
43681;BME280;29281;50.356;30.894;2023-04-07T02:52:03;100203.26;;;6.92;100.00
43681;BME280;29281;50.356;30.894;2023-04-07T02:53:06;100209.23;;;6.96;100.00
43681;BME280;29281;50.356;30.894;2023-04-07T02:54:13;100204.58;;;7.01;100.00
43681;BME280;29281;50.356;30.894;2023-04-07T02:55:13;100208.81;;;7.03;100.00
43681;BME280;29281;50.356;30.894;2023-04-07T02:56:17;100214.95;;;7.04;100.00
43681;BME280;29281;50.356;30.894;2023-04-07T02:57:20;100208.07;;;7.01;100.00
43681;BME280;29281;50.356;30.894;2023-04-07T02:58:24;100216.58;;;7.06;100.00
43681;BME280;29281;50.356;30.894;2023-04-07T02:59:28;100220.85;;;7.09;100.00
43681;BME280;29281;50.356;30.894;2023-04-07T03:00:32;100214.80;;;7.07;100.00
43681;BME280;29281;50.356;30.894;2023-04-07T03:01:37;100218.12;;;7.11;100.00
43681;BME280;29281;50.356;30.894;2023-04-07T03:02:43;100221.86;;;7.06;100.00
43681;BME280;29281;50.356;30.894;2023-04-07T03:03:47;100221.86;;;7.06;100.00
43681;BME280;29281;50.356;30.894;2023-04-07T03:04:52;100221.09;;;7.04;100.00
43681;BME280;29281;50.356;30.894;2023-04-07T03:05:56;100227.84;;;7.10;100.00
43681;BME280;29281;50.356;30.894;2023-04-07T03:06:59;100223.49;;;7.09;100.00
43681;BME280;29281;50.356;30.894;2023-04-07T03:08:05;100228.45;;;7.15;100.00
43681;BME280;29281;50.356;30.894;2023-04-07T03:09:08;100227.77;;;7.12;100.00
43681;BME280;29281;50.356;30.894;2023-04-07T03:10:12;100218.45;;;7.04;100.00
43681;BME280;29281;50.356;30.894;2023-04-07T03:11:15;100233.70;;;6.99;100.00
43681;BME280;29281;50.356;30.894;2023-04-07T03:12:19;100230.98;;;7.01;100.00
43681;BME280;29281;50.356;30.894;2023-04-07T03:13:23;100222.16;;;6.85;100.00
43681;BME280;29281;50.356;30.894;2023-04-07T03:14:26;100234.08;;;6.92;100.00
43681;BME280;29281;50.356;30.894;2023-04-07T03:15:29;100227.81;;;6.77;100.00
43681;BME280;29281;50.356;30.894;2023-04-07T03:16:32;100227.52;;;6.83;100.00
43681;BME280;29281;50.356;30.894;2023-04-07T03:17:39;100234.34;;;6.87;100.00
43681;BME280;29281;50.356;30.894;2023-04-07T03:18:42;100234.42;;;6.86;100.00
43681;BME280;29281;50.356;30.894;2023-04-07T03:19:46;100235.09;;;6.89;100.00
43681;BME280;29281;50.356;30.894;2023-04-07T03:20:51;100228.29;;;6.85;100.00
43681;BME280;29281;50.356;30.894;2023-04-07T03:21:57;100232.64;;;6.86;100.00
43681;BME280;29281;50.356;30.894;2023-04-07T03:23:01;100237.58;;;6.92;100.00
43681;BME280;29281;50.356;30.894;2023-04-07T03:24:09;100235.87;;;6.91;100.00
43681;BME280;29281;50.356;30.894;2023-04-07T03:25:09;100238.59;;;6.90;100.00
43681;BME280;29281;50.356;30.894;2023-04-07T03:26:13;100243.20;;;6.86;100.00
43681;BME280;29281;50.356;30.894;2023-04-07T03:27:21;100237.92;;;6.86;100.00
43681;BME280;29281;50.356;30.894;2023-04-07T03:28:24;100243.34;;;6.83;100.00
43681;BME280;29281;50.356;30.894;2023-04-07T03:29:29;100240.08;;;6.78;100.00
43681;BME280;29281;50.356;30.894;2023-04-07T03:30:35;100241.23;;;6.73;100.00
43681;BME280;29281;50.356;30.894;2023-04-07T03:31:39;100243.73;;;6.76;100.00
43681;BME280;29281;50.356;30.894;2023-04-07T03:32:43;100242.88;;;6.75;100.00
43681;BME280;29281;50.356;30.894;2023-04-07T03:33:49;100246.70;;;6.69;100.00
43681;BME280;29281;50.356;30.894;2023-04-07T03:34:54;100248.48;;;6.69;100.00
43681;BME280;29281;50.356;30.894;2023-04-07T03:35:58;100252.77;;;6.72;100.00
43681;BME280;29281;50.356;30.894;2023-04-07T03:37:01;100249.08;;;6.74;100.00
43681;BME280;29281;50.356;30.894;2023-04-07T03:38:05;100246.29;;;6.77;100.00
43681;BME280;29281;50.356;30.894;2023-04-07T03:39:10;100246.22;;;6.79;100.00
43681;BME280;29281;50.356;30.894;2023-04-07T03:40:13;100246.29;;;6.77;100.00
43681;BME280;29281;50.356;30.894;2023-04-07T03:41:17;100257.85;;;6.75;100.00
43681;BME280;29281;50.356;30.894;2023-04-07T03:42:21;100246.37;;;6.76;100.00
43681;BME280;29281;50.356;30.894;2023-04-07T03:43:25;100255.47;;;6.70;100.00
43681;BME280;29281;50.356;30.894;2023-04-07T03:44:30;100258.56;;;6.78;100.00
43681;BME280;29281;50.356;30.894;2023-04-07T03:45:33;100254.28;;;6.76;100.00
43681;BME280;29281;50.356;30.894;2023-04-07T03:46:41;100254.20;;;6.77;100.00
43681;BME280;29281;50.356;30.894;2023-04-07T03:47:44;100257.78;;;6.76;100.00
43681;BME280;29281;50.356;30.894;2023-04-07T03:48:48;100259.19;;;6.83;100.00
43681;BME280;29281;50.356;30.894;2023-04-07T03:49:51;100261.13;;;6.80;100.00
43681;BME280;29281;50.356;30.894;2023-04-07T03:50:55;100257.70;;;6.78;100.00
43681;BME280;29281;50.356;30.894;2023-04-07T03:51:58;100260.34;;;6.78;100.00
43681;BME280;29281;50.356;30.894;2023-04-07T03:53:02;100262.98;;;6.78;100.00
43681;BME280;29281;50.356;30.894;2023-04-07T03:54:05;100264.62;;;6.80;100.00
43681;BME280;29281;50.356;30.894;2023-04-07T03:55:10;100261.75;;;6.85;100.00
43681;BME280;29281;50.356;30.894;2023-04-07T03:56:15;100264.39;;;6.85;100.00
43681;BME280;29281;50.356;30.894;2023-04-07T03:57:24;100262.61;;;6.85;100.00
43681;BME280;29281;50.356;30.894;2023-04-07T03:58:27;100269.75;;;6.83;100.00
43681;BME280;29281;50.356;30.894;2023-04-07T03:59:31;100269.04;;;6.80;100.00
43681;BME280;29281;50.356;30.894;2023-04-07T04:00:36;100269.89;;;6.80;100.00
43681;BME280;29281;50.356;30.894;2023-04-07T04:01:43;100278.52;;;6.84;100.00
43681;BME280;29281;50.356;30.894;2023-04-07T04:02:49;100275.87;;;7.01;100.00
43681;BME280;29281;50.356;30.894;2023-04-07T04:03:53;100281.28;;;7.15;100.00
43681;BME280;29281;50.356;30.894;2023-04-07T04:04:59;100281.36;;;7.14;100.00
43681;BME280;29281;50.356;30.894;2023-04-07T04:06:03;100284.78;;;7.16;100.00
43681;BME280;29281;50.356;30.894;2023-04-07T04:07:06;100282.44;;;7.10;100.00
43681;BME280;29281;50.356;30.894;2023-04-07T04:08:11;100280.73;;;7.09;100.00
43681;BME280;29281;50.356;30.894;2023-04-07T04:09:15;100279.65;;;7.13;100.00
43681;BME280;29281;50.356;30.894;2023-04-07T04:10:22;100287.72;;;7.10;100.00
43681;BME280;29281;50.356;30.894;2023-04-07T04:11:27;100287.49;;;7.14;100.00
43681;BME280;29281;50.356;30.894;2023-04-07T04:12:33;100289.72;;;7.22;100.00
43681;BME280;29281;50.356;30.894;2023-04-07T04:13:39;100289.20;;;7.15;100.00
43681;BME280;29281;50.356;30.894;2023-04-07T04:14:42;100288.34;;;7.15;100.00
43681;BME280;29281;50.356;30.894;2023-04-07T04:15:47;100292.85;;;7.13;100.00
43681;BME280;29281;50.356;30.894;2023-04-07T04:16:53;100298.15;;;6.95;100.00
43681;BME280;29281;50.356;30.894;2023-04-07T04:18:02;100294.41;;;7.17;100.00
43681;BME280;29281;50.356;30.894;2023-04-07T04:19:06;100291.63;;;7.02;100.00
43681;BME280;29281;50.356;30.894;2023-04-07T04:20:09;100296.66;;;7.07;100.00
43681;BME280;29281;50.356;30.894;2023-04-07T04:21:15;100297.33;;;7.28;100.00
43681;BME280;29281;50.356;30.894;2023-04-07T04:22:18;100304.05;;;7.33;100.00
43681;BME280;29281;50.356;30.894;2023-04-07T04:23:23;100297.95;;;7.33;100.00
43681;BME280;29281;50.356;30.894;2023-04-07T04:24:27;100298.41;;;7.57;100.00
43681;BME280;29281;50.356;30.894;2023-04-07T04:25:31;100305.59;;;7.70;100.00
43681;BME280;29281;50.356;30.894;2023-04-07T04:26:36;100302.17;;;7.68;100.00
43681;BME280;29281;50.356;30.894;2023-04-07T04:27:41;100307.63;;;7.65;100.00
43681;BME280;29281;50.356;30.894;2023-04-07T04:28:47;100303.97;;;7.68;100.00
43681;BME280;29281;50.356;30.894;2023-04-07T04:29:50;100305.52;;;7.72;100.00
43681;BME280;29281;50.356;30.894;2023-04-07T04:30:56;100313.01;;;7.80;100.00
43681;BME280;29281;50.356;30.894;2023-04-07T04:31:59;100310.98;;;7.85;100.00
43681;BME280;29281;50.356;30.894;2023-04-07T04:33:03;100308.50;;;7.82;100.00
43681;BME280;29281;50.356;30.894;2023-04-07T04:34:21;100311.14;;;7.82;100.00
43681;BME280;29281;50.356;30.894;2023-04-07T04:35:25;100316.44;;;7.97;100.00
43681;BME280;29281;50.356;30.894;2023-04-07T04:36:42;100321.08;;;8.09;100.00
43681;BME280;29281;50.356;30.894;2023-04-07T04:37:46;100311.84;;;8.01;100.00
43681;BME280;29281;50.356;30.894;2023-04-07T04:38:50;100311.84;;;8.01;100.00
43681;BME280;29281;50.356;30.894;2023-04-07T04:39:55;100315.09;;;8.06;100.00
43681;BME280;29281;50.356;30.894;2023-04-07T04:41:03;100309.64;;;8.09;100.00
43681;BME280;29281;50.356;30.894;2023-04-07T04:42:08;100317.46;;;8.10;100.00
43681;BME280;29281;50.356;30.894;2023-04-07T04:43:11;100320.02;;;8.28;100.00
43681;BME280;29281;50.356;30.894;2023-04-07T04:44:16;100314.25;;;8.37;100.00
43681;BME280;29281;50.356;30.894;2023-04-07T04:45:19;100317.81;;;8.20;100.00
43681;BME280;29281;50.356;30.894;2023-04-07T04:46:23;100330.69;;;8.26;100.00
43681;BME280;29281;50.356;30.894;2023-04-07T04:47:31;100326.80;;;8.33;100.00
43681;BME280;29281;50.356;30.894;2023-04-07T04:48:35;100325.33;;;8.43;100.00
43681;BME280;29281;50.356;30.894;2023-04-07T04:49:39;100323.45;;;8.45;100.00
43681;BME280;29281;50.356;30.894;2023-04-07T04:50:43;100331.13;;;8.50;100.00
43681;BME280;29281;50.356;30.894;2023-04-07T04:51:47;100337.22;;;8.36;100.00
43681;BME280;29281;50.356;30.894;2023-04-07T04:52:51;100330.80;;;8.25;100.00
43681;BME280;29281;50.356;30.894;2023-04-07T04:53:56;100326.80;;;8.33;100.00
43681;BME280;29281;50.356;30.894;2023-04-07T04:55:01;100333.03;;;8.32;100.00
43681;BME280;29281;50.356;30.894;2023-04-07T04:56:04;100328.41;;;8.52;100.00
43681;BME280;29281;50.356;30.894;2023-04-07T04:57:14;100332.08;;;8.49;100.00
43681;BME280;29281;50.356;30.894;2023-04-07T04:58:19;100336.41;;;8.66;100.00
43681;BME280;29281;50.356;30.894;2023-04-07T04:59:23;100336.88;;;9.02;100.00
43681;BME280;29281;50.356;30.894;2023-04-07T05:00:38;100333.38;;;9.46;100.00
43681;BME280;29281;50.356;30.894;2023-04-07T05:01:42;100338.23;;;10.09;100.00
43681;BME280;29281;50.356;30.894;2023-04-07T05:02:48;100342.06;;;10.73;99.03
43681;BME280;29281;50.356;30.894;2023-04-07T05:03:55;100354.72;;;11.34;94.21
43681;BME280;29281;50.356;30.894;2023-04-07T05:05:00;100359.49;;;12.18;88.20
43681;BME280;29281;50.356;30.894;2023-04-07T05:06:04;100365.36;;;12.71;84.15
43681;BME280;29281;50.356;30.894;2023-04-07T05:07:07;100379.70;;;13.28;80.55
43681;BME280;29281;50.356;30.894;2023-04-07T05:08:10;100370.30;;;13.58;80.16
43681;BME280;29281;50.356;30.894;2023-04-07T05:09:14;100374.30;;;13.63;80.22
43681;BME280;29281;50.356;30.894;2023-04-07T05:10:24;100368.84;;;13.65;79.67
43681;BME280;29281;50.356;30.894;2023-04-07T05:11:27;100380.25;;;13.78;77.22
43681;BME280;29281;50.356;30.894;2023-04-07T05:12:30;100386.21;;;13.70;76.91
43681;BME280;29281;50.356;30.894;2023-04-07T05:13:36;100381.72;;;13.71;75.96
43681;BME280;29281;50.356;30.894;2023-04-07T05:14:39;100382.42;;;13.62;76.83
43681;BME280;29281;50.356;30.894;2023-04-07T05:15:43;100388.88;;;13.93;74.35
43681;BME280;29281;50.356;30.894;2023-04-07T05:16:47;100384.64;;;14.13;78.23
43681;BME280;29281;50.356;30.894;2023-04-07T05:17:52;100388.49;;;14.64;75.64
43681;BME280;29281;50.356;30.894;2023-04-07T05:18:57;100389.61;;;14.94;72.83
43681;BME280;29281;50.356;30.894;2023-04-07T05:20:03;100407.50;;;15.14;69.54
43681;BME280;29281;50.356;30.894;2023-04-07T05:21:08;100406.51;;;14.94;67.94
43681;BME280;29281;50.356;30.894;2023-04-07T05:22:11;100404.28;;;14.99;69.17
43681;BME280;29281;50.356;30.894;2023-04-07T05:23:16;100404.16;;;15.54;69.95
43681;BME280;29281;50.356;30.894;2023-04-07T05:24:21;100400.02;;;15.91;66.84
43681;BME280;29281;50.356;30.894;2023-04-07T05:25:26;100412.02;;;16.17;63.13
43681;BME280;29281;50.356;30.894;2023-04-07T05:26:31;100410.48;;;15.53;65.08
43681;BME280;29281;50.356;30.894;2023-04-07T05:27:38;100413.08;;;15.43;65.59
43681;BME280;29281;50.356;30.894;2023-04-07T05:28:42;100426.09;;;14.84;62.48
43681;BME280;29281;50.356;30.894;2023-04-07T05:29:48;100405.45;;;13.52;69.15
43681;BME280;29281;50.356;30.894;2023-04-07T05:30:53;100397.34;;;13.53;71.71
43681;BME280;29281;50.356;30.894;2023-04-07T05:31:58;100400.13;;;13.63;68.62
43681;BME280;29281;50.356;30.894;2023-04-07T05:33:05;100396.03;;;13.70;72.29
43681;BME280;29281;50.356;30.894;2023-04-07T05:34:14;100411.64;;;13.17;67.69
43681;BME280;29281;50.356;30.894;2023-04-07T05:35:20;100405.12;;;13.21;69.26
43681;BME280;29281;50.356;30.894;2023-04-07T05:36:28;100404.73;;;13.61;67.36
43681;BME280;29281;50.356;30.894;2023-04-07T05:37:32;100402.11;;;14.05;69.24
43681;BME280;29281;50.356;30.894;2023-04-07T05:38:37;100417.05;;;13.86;65.35
43681;BME280;29281;50.356;30.894;2023-04-07T05:39:43;100408.88;;;13.76;69.18
43681;BME280;29281;50.356;30.894;2023-04-07T05:40:48;100415.22;;;13.86;68.68
43681;BME280;29281;50.356;30.894;2023-04-07T05:41:55;100413.64;;;13.95;65.40
43681;BME280;29281;50.356;30.894;2023-04-07T05:43:01;100419.09;;;14.38;66.30
43681;BME280;29281;50.356;30.894;2023-04-07T05:44:05;100423.95;;;14.22;62.44
43681;BME280;29281;50.356;30.894;2023-04-07T05:45:11;100430.16;;;15.10;61.12